Time;durP1;ratioP1;P1;durP2;ratioP2;P2;SDS_P1;SDS_P2;PMS_P1;PMS_P2;Temp;Humidity;BMP_temperature;BMP_pressure;BME280_temperature;BME280_humidity;BME280_pressure;Samples;Min_cycle;Max_cycle;Signal;HPM_P1;HPM_P2
2022/01/06 00:01:01;;;;;;;16.15;13.48;;;8.90;82.60;;;;;;5047706;28;20124;-57
2022/01/06 00:03:27;;;;;;;17.50;13.35;;;8.90;82.70;;;;;;5046484;28;20021;-56
2022/01/06 00:05:54;;;;;;;18.65;14.45;;;8.90;82.60;;;;;;5048728;28;20095;-56
2022/01/06 00:08:20;;;;;;;16.25;13.88;;;8.90;82.60;;;;;;5044348;28;20051;-57
2022/01/06 00:10:48;;;;;;;16.73;12.90;;;8.90;82.60;;;;;;5048239;28;20021;-57
2022/01/06 00:13:17;;;;;;;18.08;13.52;;;8.80;82.80;;;;;;5047760;28;20112;-57
2022/01/06 00:18:32;;;;;;;18.50;14.07;;;8.80;83.00;;;;;;5048636;28;20502;-57
2022/01/06 00:23:43;;;;;;;20.73;16.27;;;8.80;83.10;;;;;;5041330;28;20104;-55
2022/01/06 00:26:09;;;;;;;22.35;16.67;;;8.80;82.80;;;;;;5050588;28;20024;-57
2022/01/06 00:28:36;;;;;;;18.35;14.65;;;8.80;82.90;;;;;;5062311;28;20090;-54
2022/01/06 00:31:02;;;;;;;19.13;14.40;;;8.80;82.70;;;;;;5042888;28;20048;-56
2022/01/06 00:33:30;;;;;;;18.40;14.00;;;8.80;82.50;;;;;;5042486;28;20117;-56
2022/01/06 00:35:56;;;;;;;17.40;13.45;;;8.80;82.60;;;;;;5050815;28;20025;-56
2022/01/06 00:38:24;;;;;;;18.02;13.60;;;8.70;82.70;;;;;;5050652;28;20035;-57
2022/01/06 00:40:50;;;;;;;19.42;14.38;;;8.70;82.90;;;;;;5060511;28;20049;-56
2022/01/06 00:43:16;;;;;;;20.80;15.50;;;8.70;83.10;;;;;;5044880;28;20024;-55
2022/01/06 00:45:41;;;;;;;18.50;14.05;;;8.60;83.20;;;;;;5050069;28;20036;-54
2022/01/06 00:48:09;;;;;;;18.77;15.32;;;8.60;83.50;;;;;;5036262;28;20469;-57
2022/01/06 00:50:36;;;;;;;17.55;12.95;;;8.60;83.60;;;;;;5043491;28;20103;-55
2022/01/06 00:53:04;;;;;;;15.40;12.80;;;8.60;83.70;;;;;;5043605;28;20484;-53
2022/01/06 00:55:34;;;;;;;16.58;12.50;;;8.60;83.70;;;;;;5044402;28;20065;-55
2022/01/06 00:58:01;;;;;;;14.90;12.80;;;8.60;83.50;;;;;;5047854;28;20104;-55
2022/01/06 01:00:31;;;;;;;18.52;12.98;;;8.60;83.50;;;;;;5050098;28;20110;-55
2022/01/06 01:02:57;;;;;;;16.05;11.30;;;8.60;83.60;;;;;;5051070;28;20466;-55
2022/01/06 01:05:24;;;;;;;16.02;12.68;;;8.60;83.70;;;;;;5041280;28;20051;-56
2022/01/06 01:07:49;;;;;;;15.02;11.02;;;8.60;83.80;;;;;;5032703;28;20030;-55
2022/01/06 01:10:15;;;;;;;19.27;12.32;;;8.60;83.80;;;;;;5050109;28;20021;-57
2022/01/06 01:12:46;;;;;;;16.45;11.90;;;8.60;83.90;;;;;;5065312;28;20025;-57
2022/01/06 01:15:19;;;;;;;13.68;11.18;;;8.60;84.00;;;;;;5047729;28;20029;-55
2022/01/06 01:17:47;;;;;;;14.68;11.50;;;8.60;84.00;;;;;;5056808;28;20040;-52
2022/01/06 01:20:13;;;;;;;15.07;12.30;;;8.60;84.10;;;;;;5049069;28;20029;-56
2022/01/06 01:22:39;;;;;;;14.23;11.88;;;8.60;84.20;;;;;;5048550;28;20087;-54
2022/01/06 01:25:04;;;;;;;16.45;12.25;;;8.60;83.90;;;;;;5037684;28;20029;-55
2022/01/06 01:27:35;;;;;;;14.52;12.05;;;8.60;84.10;;;;;;5053592;28;20028;-56
2022/01/06 01:30:08;;;;;;;16.52;12.50;;;8.60;84.10;;;;;;5053540;28;20059;-53
2022/01/06 01:32:36;;;;;;;15.63;11.50;;;8.60;84.20;;;;;;5042762;28;20032;-56
2022/01/06 01:35:07;;;;;;;15.65;11.60;;;8.60;84.00;;;;;;5043762;28;20544;-56
2022/01/06 01:37:33;;;;;;;15.82;12.80;;;8.60;83.80;;;;;;5049774;28;20025;-57
2022/01/06 01:40:00;;;;;;;15.05;11.55;;;8.60;83.70;;;;;;5041820;28;20033;-56
2022/01/06 01:42:27;;;;;;;16.63;12.00;;;8.70;83.70;;;;;;5041467;28;20029;-57
2022/01/06 01:44:53;;;;;;;16.20;11.82;;;8.70;83.50;;;;;;5054985;28;20411;-56
2022/01/06 01:47:30;;;;;;;15.43;11.57;;;8.70;83.40;;;;;;5064163;28;20052;-57
2022/01/06 01:50:18;;;;;;;16.52;12.00;;;8.70;83.40;;;;;;5041913;28;20469;-57
2022/01/06 01:52:45;;;;;;;13.20;10.30;;;8.60;83.50;;;;;;5052502;28;20037;-56
2022/01/06 01:55:15;;;;;;;15.20;12.55;;;8.60;83.60;;;;;;5045531;28;20031;-56
2022/01/06 01:57:41;;;;;;;15.63;11.30;;;8.60;83.60;;;;;;5044320;28;20025;-56
2022/01/06 02:00:10;;;;;;;14.75;11.88;;;8.50;83.70;;;;;;5052708;28;20040;-55
2022/01/06 02:02:36;;;;;;;15.00;11.75;;;8.50;83.80;;;;;;5051645;28;20422;-57
2022/01/06 02:05:02;;;;;;;15.57;12.55;;;8.50;83.90;;;;;;5051269;28;20083;-56
2022/01/06 02:07:27;;;;;;;16.95;12.20;;;8.40;84.00;;;;;;5052614;28;20037;-53
2022/01/06 02:09:53;;;;;;;14.20;11.98;;;8.40;84.10;;;;;;5064010;28;20114;-56
2022/01/06 02:12:28;;;;;;;17.77;13.80;;;8.40;84.10;;;;;;5052512;28;20024;-54
2022/01/06 02:14:54;;;;;;;16.95;12.70;;;8.40;84.10;;;;;;5035823;28;20071;-53
2022/01/06 02:17:20;;;;;;;19.33;13.45;;;8.40;84.10;;;;;;5052687;28;20461;-56
2022/01/06 02:19:56;;;;;;;16.90;12.70;;;8.40;84.00;;;;;;5052680;28;20079;-56
2022/01/06 02:22:22;;;;;;;17.63;13.07;;;8.40;83.80;;;;;;5055635;28;20049;-56
2022/01/06 02:24:48;;;;;;;16.90;13.60;;;8.40;83.70;;;;;;5056028;28;20041;-56
2022/01/06 02:27:13;;;;;;;17.52;13.57;;;8.40;83.70;;;;;;5056907;28;20456;-56
2022/01/06 02:29:39;;;;;;;16.10;13.43;;;8.40;83.50;;;;;;5052838;28;20021;-56
2022/01/06 02:32:10;;;;;;;17.13;14.35;;;8.40;83.40;;;;;;5040196;28;20545;-55
2022/01/06 02:34:36;;;;;;;18.70;13.93;;;8.40;83.40;;;;;;5048739;28;20382;-55
2022/01/06 02:37:03;;;;;;;15.57;12.95;;;8.40;83.40;;;;;;5051983;28;20040;-56
2022/01/06 02:39:28;;;;;;;17.55;13.00;;;8.40;83.40;;;;;;5054429;28;20381;-57
2022/01/06 02:41:54;;;;;;;15.07;11.77;;;8.40;83.40;;;;;;5047257;28;20037;-52
2022/01/06 02:44:23;;;;;;;16.38;12.63;;;8.30;83.60;;;;;;5041832;28;20048;-55
2022/01/06 02:46:49;;;;;;;13.35;11.50;;;8.30;83.60;;;;;;5046514;28;20017;-56
2022/01/06 02:49:15;;;;;;;17.00;13.32;;;8.30;83.80;;;;;;5043098;28;20021;-57
2022/01/06 02:51:41;;;;;;;17.00;12.90;;;8.20;83.80;;;;;;5041413;28;20030;-55
2022/01/06 02:54:07;;;;;;;14.32;12.02;;;8.20;84.10;;;;;;5051879;28;20049;-56
2022/01/06 02:56:33;;;;;;;16.48;12.00;;;8.20;84.10;;;;;;5046798;28;20061;-57
2022/01/06 02:58:59;;;;;;;15.35;11.82;;;8.20;84.10;;;;;;5056296;28;20067;-57
2022/01/06 03:01:24;;;;;;;14.52;11.80;;;8.10;84.10;;;;;;5056102;28;20531;-54
2022/01/06 03:03:50;;;;;;;15.10;12.43;;;8.10;84.20;;;;;;5039007;28;20112;-57
2022/01/06 03:06:16;;;;;;;14.32;11.68;;;8.10;84.30;;;;;;5042766;28;20025;-55
2022/01/06 03:08:41;;;;;;;17.05;12.60;;;8.10;84.20;;;;;;5037964;28;20024;-55
2022/01/06 03:11:07;;;;;;;15.60;12.45;;;8.10;84.40;;;;;;5051497;28;20036;-53
2022/01/06 03:13:34;;;;;;;15.50;12.80;;;8.10;84.30;;;;;;5049406;28;20025;-55
2022/01/06 03:16:01;;;;;;;14.55;11.68;;;8.10;84.40;;;;;;5036132;28;20053;-56
2022/01/06 03:18:27;;;;;;;17.92;13.52;;;8.10;84.50;;;;;;5055891;28;20036;-56
2022/01/06 03:20:53;;;;;;;17.95;13.40;;;8.10;84.60;;;;;;5051059;28;20413;-57
2022/01/06 03:23:19;;;;;;;15.25;13.23;;;8.10;84.50;;;;;;5036617;28;20043;-55
2022/01/06 03:25:45;;;;;;;15.23;12.73;;;8.10;84.50;;;;;;5034323;28;20167;-56
2022/01/06 03:28:11;;;;;;;17.83;13.73;;;8.10;84.40;;;;;;5053730;28;20096;-56
2022/01/06 03:30:36;;;;;;;21.35;14.90;;;8.10;84.20;;;;;;5043272;28;20030;-56
2022/01/06 03:33:02;;;;;;;15.93;13.25;;;8.10;84.10;;;;;;5057157;28;20100;-56
2022/01/06 03:35:28;;;;;;;17.40;13.25;;;8.10;84.10;;;;;;5059187;28;20048;-57
2022/01/06 03:37:54;;;;;;;17.00;12.80;;;8.00;84.10;;;;;;5047214;28;20417;-57
2022/01/06 03:40:19;;;;;;;15.43;12.20;;;8.00;84.10;;;;;;5049995;28;20454;-56
2022/01/06 03:42:45;;;;;;;14.05;11.77;;;8.00;84.20;;;;;;5050485;28;20041;-56
2022/01/06 03:45:16;;;;;;;12.70;11.02;;;8.00;84.40;;;;;;5070206;28;20025;-57
2022/01/06 03:47:43;;;;;;;15.52;12.15;;;8.00;84.20;;;;;;5038669;28;20108;-57
2022/01/06 03:50:11;;;;;;;15.13;12.00;;;7.90;84.20;;;;;;5052431;28;20114;-52
2022/01/06 03:52:37;;;;;;;14.60;11.93;;;8.00;84.40;;;;;;5048033;28;20032;-57
2022/01/06 03:55:05;;;;;;;14.27;12.23;;;7.90;84.40;;;;;;5049769;28;20033;-55
2022/01/06 03:57:31;;;;;;;13.30;11.25;;;8.00;84.50;;;;;;5040652;28;20487;-57
2022/01/06 03:59:56;;;;;;;16.73;12.55;;;7.90;84.50;;;;;;5033206;28;20033;-57
2022/01/06 04:02:22;;;;;;;14.18;12.13;;;7.90;84.50;;;;;;5042856;28;20025;-56
2022/01/06 04:04:48;;;;;;;17.58;12.98;;;7.90;84.60;;;;;;5042093;28;20072;-55
2022/01/06 04:07:13;;;;;;;16.80;12.25;;;7.90;84.60;;;;;;5041009;28;20018;-53
2022/01/06 04:09:39;;;;;;;14.52;12.65;;;7.90;84.80;;;;;;5039750;28;21061;-56
2022/01/06 04:12:09;;;;;;;17.88;13.48;;;7.90;84.70;;;;;;5042284;28;20025;-56
2022/01/06 04:14:34;;;;;;;15.50;13.13;;;7.90;85.00;;;;;;5036382;28;20029;-56
2022/01/06 04:17:01;;;;;;;14.93;12.63;;;7.90;84.80;;;;;;5048265;28;20026;-56
2022/01/06 04:19:27;;;;;;;15.25;12.48;;;7.90;84.80;;;;;;5048813;28;20048;-57
2022/01/06 04:21:53;;;;;;;15.35;12.63;;;8.00;84.50;;;;;;5034275;28;20052;-54
2022/01/06 04:24:19;;;;;;;17.02;13.00;;;8.00;84.50;;;;;;5049333;28;20444;-55
2022/01/06 04:26:45;;;;;;;16.25;12.70;;;8.00;84.40;;;;;;5045088;28;20021;-53
2022/01/06 04:29:10;;;;;;;17.90;13.48;;;8.00;84.40;;;;;;5046581;28;20078;-54
2022/01/06 04:31:38;;;;;;;14.93;12.57;;;8.00;84.40;;;;;;5036556;28;20026;-57
2022/01/06 04:34:04;;;;;;;18.60;14.20;;;8.00;84.70;;;;;;5052557;28;22269;-56
2022/01/06 04:36:29;;;;;;;15.73;12.93;;;8.00;84.90;;;;;;5055958;28;20060;-57
2022/01/06 04:38:55;;;;;;;18.13;13.65;;;8.00;85.10;;;;;;5041987;28;20041;-56
2022/01/06 04:41:20;;;;;;;17.10;14.10;;;8.00;85.30;;;;;;5049176;28;20032;-55
2022/01/06 04:43:46;;;;;;;15.63;12.80;;;8.00;85.30;;;;;;5057676;28;20492;-55
2022/01/06 04:46:12;;;;;;;14.50;11.60;;;8.00;85.40;;;;;;5057705;28;20032;-57
2022/01/06 04:48:37;;;;;;;14.32;11.55;;;8.00;85.40;;;;;;5042951;28;20017;-57
2022/01/06 04:51:04;;;;;;;13.80;11.38;;;8.00;85.50;;;;;;5039823;28;20410;-57
2022/01/06 04:53:30;;;;;;;13.88;11.02;;;8.00;85.50;;;;;;5044402;28;20025;-56
2022/01/06 04:55:58;;;;;;;13.80;11.02;;;8.00;85.30;;;;;;5043837;28;20013;-55
2022/01/06 04:58:23;;;;;;;16.77;13.18;;;8.00;85.30;;;;;;5039771;28;20034;-55
2022/01/06 05:00:49;;;;;;;16.60;12.48;;;7.90;85.40;;;;;;5042089;28;20029;-58
2022/01/06 05:03:14;;;;;;;17.65;14.35;;;7.90;85.60;;;;;;5031794;28;21765;-57
2022/01/06 05:05:40;;;;;;;15.52;11.90;;;8.00;85.80;;;;;;5038947;28;20021;-57
2022/01/06 05:08:06;;;;;;;18.88;13.05;;;7.90;85.80;;;;;;5036888;28;20029;-56
2022/01/06 05:10:31;;;;;;;15.50;12.80;;;7.90;85.70;;;;;;5040399;28;20590;-57
2022/01/06 05:12:57;;;;;;;16.98;13.88;;;8.00;85.80;;;;;;5058493;28;20033;-57
2022/01/06 05:15:23;;;;;;;17.55;13.38;;;8.00;86.00;;;;;;5042027;28;20052;-57
2022/01/06 05:17:48;;;;;;;17.50;12.85;;;8.00;86.00;;;;;;5036021;28;20025;-56
2022/01/06 05:20:14;;;;;;;16.98;13.35;;;8.00;85.80;;;;;;5050243;28;20032;-56
2022/01/06 05:22:44;;;;;;;17.83;13.88;;;8.00;85.60;;;;;;5046412;28;20037;-57
2022/01/06 05:25:11;;;;;;;19.63;14.23;;;8.00;85.50;;;;;;5048570;28;20028;-57
2022/01/06 05:27:37;;;;;;;19.38;15.43;;;8.00;86.30;;;;;;5045611;28;20465;-56
2022/01/06 05:30:05;;;;;;;20.65;15.70;;;8.00;85.70;;;;;;5030267;28;20040;-54
2022/01/06 05:32:31;;;;;;;17.83;14.32;;;8.10;85.80;;;;;;5033175;28;20140;-57
2022/01/06 05:34:56;;;;;;;19.67;15.10;;;8.10;85.80;;;;;;5033828;28;20462;-56
2022/01/06 05:37:22;;;;;;;19.17;14.88;;;8.10;85.70;;;;;;5043176;28;20030;-57
2022/01/06 05:39:48;;;;;;;20.20;15.30;;;8.10;85.60;;;;;;5051580;28;20365;-57
2022/01/06 05:42:13;;;;;;;18.83;14.88;;;8.10;85.60;;;;;;5044220;28;20447;-53
2022/01/06 05:44:41;;;;;;;20.58;15.57;;;8.10;85.40;;;;;;5043955;28;20040;-57
2022/01/06 05:47:07;;;;;;;20.35;16.40;;;8.10;85.40;;;;;;5052635;28;20031;-55
2022/01/06 05:49:33;;;;;;;21.92;16.48;;;8.10;85.30;;;;;;5056135;28;20037;-56
2022/01/06 05:51:59;;;;;;;21.30;15.70;;;8.20;85.40;;;;;;5046316;28;20046;-57
2022/01/06 05:54:25;;;;;;;22.63;16.88;;;8.20;85.20;;;;;;5042073;28;20029;-57
2022/01/06 05:56:51;;;;;;;20.88;16.48;;;8.20;85.00;;;;;;5043895;28;20029;-57
2022/01/06 05:59:17;;;;;;;20.08;16.23;;;8.20;84.90;;;;;;5046890;28;20134;-57
2022/01/06 06:01:43;;;;;;;21.23;14.82;;;8.20;84.80;;;;;;5051561;28;20023;-57
2022/01/06 06:04:09;;;;;;;20.15;15.70;;;8.20;84.80;;;;;;5035798;28;20332;-56
2022/01/06 06:06:34;;;;;;;23.30;16.27;;;8.20;84.70;;;;;;5036303;28;20036;-54
2022/01/06 06:09:00;;;;;;;23.23;16.73;;;8.30;84.60;;;;;;5041967;28;20044;-55
2022/01/06 06:11:25;;;;;;;23.83;17.52;;;8.30;84.60;;;;;;5046342;28;20025;-57
2022/01/06 06:13:51;;;;;;;23.42;16.80;;;8.30;84.50;;;;;;5044645;28;20362;-57
2022/01/06 06:16:17;;;;;;;22.95;16.38;;;8.40;84.60;;;;;;5044432;28;20033;-56
2022/01/06 06:18:42;;;;;;;21.45;16.15;;;8.40;84.40;;;;;;5040426;28;20115;-56
2022/01/06 06:21:08;;;;;;;24.42;16.23;;;8.40;84.30;;;;;;5047988;28;20045;-57
2022/01/06 06:23:34;;;;;;;21.30;16.75;;;8.50;84.20;;;;;;5040480;28;20024;-57
2022/01/06 06:26:00;;;;;;;25.60;17.33;;;8.50;84.10;;;;;;5047426;28;20393;-54
2022/01/06 06:28:26;;;;;;;23.35;17.35;;;8.50;84.00;;;;;;5039238;28;20131;-55
2022/01/06 06:30:51;;;;;;;23.42;17.50;;;8.50;83.90;;;;;;5036515;28;20404;-57
2022/01/06 06:33:17;;;;;;;24.83;16.77;;;8.60;83.70;;;;;;5040173;28;20025;-56
2022/01/06 06:35:42;;;;;;;23.10;16.63;;;8.50;84.10;;;;;;5044810;28;20029;-57
2022/01/06 06:38:08;;;;;;;23.02;17.23;;;8.60;83.60;;;;;;5041102;28;20040;-57
2022/01/06 06:40:34;;;;;;;19.67;15.02;;;8.60;83.40;;;;;;5041802;28;20032;-56
2022/01/06 06:43:00;;;;;;;21.05;15.20;;;8.60;83.40;;;;;;5055487;28;20409;-57
2022/01/06 06:45:26;;;;;;;19.95;15.20;;;8.60;83.20;;;;;;5041014;28;20087;-55
2022/01/06 06:47:51;;;;;;;18.70;15.23;;;8.60;83.20;;;;;;5032642;28;20025;-56
2022/01/06 06:50:17;;;;;;;19.08;14.75;;;8.70;83.20;;;;;;5033234;28;20034;-54
2022/01/06 06:52:44;;;;;;;18.00;14.02;;;8.70;83.20;;;;;;5030635;28;20021;-56
2022/01/06 06:55:11;;;;;;;19.27;14.57;;;8.70;83.20;;;;;;5032581;28;20033;-56
2022/01/06 06:57:37;;;;;;;17.88;14.32;;;8.70;83.30;;;;;;5032755;28;20025;-55
2022/01/06 07:00:05;;;;;;;20.90;14.32;;;8.70;83.30;;;;;;5028600;28;20054;-57
2022/01/06 07:02:31;;;;;;;20.67;14.90;;;8.70;83.30;;;;;;5027901;28;20029;-57
2022/01/06 07:04:59;;;;;;;17.80;13.70;;;8.70;83.30;;;;;;5026984;28;20021;-55
2022/01/06 07:07:25;;;;;;;19.65;14.18;;;8.80;83.20;;;;;;5032990;28;20109;-56
2022/01/06 07:09:50;;;;;;;17.08;13.38;;;8.80;83.00;;;;;;5029874;28;20179;-57
2022/01/06 07:12:16;;;;;;;16.63;13.23;;;8.80;83.00;;;;;;5035969;28;20339;-57
2022/01/06 07:14:42;;;;;;;17.90;13.00;;;8.90;82.90;;;;;;5023479;28;20052;-60
2022/01/06 07:17:08;;;;;;;17.38;13.75;;;8.90;82.70;;;;;;5028252;28;20036;-56
2022/01/06 07:19:34;;;;;;;15.45;11.93;;;8.90;83.10;;;;;;5038167;28;20476;-56
2022/01/06 07:21:59;;;;;;;18.40;13.38;;;8.90;82.80;;;;;;5039367;28;20436;-57
2022/01/06 07:24:25;;;;;;;15.65;11.57;;;8.90;82.70;;;;;;5040513;28;20401;-57
2022/01/06 07:26:51;;;;;;;17.58;12.88;;;8.90;82.80;;;;;;5031806;28;20036;-57
2022/01/06 07:29:17;;;;;;;13.85;10.05;;;8.90;82.90;;;;;;5041437;28;20021;-57
2022/01/06 07:31:42;;;;;;;11.60;8.95;;;8.80;82.80;;;;;;5042023;28;20489;-57
2022/01/06 07:34:08;;;;;;;13.57;10.68;;;8.80;82.70;;;;;;5040297;28;20115;-56
2022/01/06 07:36:34;;;;;;;12.90;10.15;;;8.80;83.00;;;;;;5038829;28;20032;-58
2022/01/06 07:38:59;;;;;;;11.48;8.90;;;8.80;83.20;;;;;;5040900;28;20387;-57
2022/01/06 07:41:25;;;;;;;13.98;10.50;;;8.90;83.40;;;;;;5032024;28;20032;-58
2022/01/06 07:43:51;;;;;;;12.07;9.55;;;8.90;83.10;;;;;;5023537;28;20061;-58
2022/01/06 07:46:16;;;;;;;11.30;9.43;;;8.90;83.10;;;;;;5035722;28;20071;-57
2022/01/06 07:48:55;;;;;;;11.13;8.95;;;8.90;83.30;;;;;;5032138;28;20084;-58
2022/01/06 07:51:24;;;;;;;12.68;9.95;;;8.90;83.00;;;;;;5027089;28;20047;-58
2022/01/06 07:53:51;;;;;;;13.00;10.55;;;8.90;83.00;;;;;;5034198;28;20026;-58
2022/01/06 07:56:17;;;;;;;12.38;9.32;;;9.00;83.10;;;;;;5018947;28;20025;-58
2022/01/06 07:58:44;;;;;;;12.43;8.93;;;9.00;83.10;;;;;;5029681;28;20512;-58
2022/01/06 08:01:10;;;;;;;10.18;8.13;;;9.10;82.70;;;;;;5029427;28;20064;-58
2022/01/06 08:03:36;;;;;;;11.55;8.50;;;9.10;82.40;;;;;;5024829;28;20041;-57
2022/01/06 08:06:01;;;;;;;12.88;9.27;;;9.20;82.40;;;;;;5030277;28;20050;-57
2022/01/06 08:08:27;;;;;;;12.25;8.32;;;9.20;82.30;;;;;;5028847;28;20040;-59
2022/01/06 08:10:53;;;;;;;11.95;9.30;;;9.20;82.10;;;;;;5020130;28;20047;-57
2022/01/06 08:13:18;;;;;;;13.88;9.73;;;9.20;81.90;;;;;;5029003;28;20071;-57
2022/01/06 08:15:44;;;;;;;11.77;9.40;;;9.20;81.90;;;;;;5027930;28;20053;-58
2022/01/06 08:18:10;;;;;;;14.55;10.38;;;9.20;82.00;;;;;;5023655;28;20850;-58
2022/01/06 08:20:36;;;;;;;11.95;9.02;;;9.20;81.90;;;;;;5028609;28;20044;-58
2022/01/06 08:23:02;;;;;;;13.10;9.10;;;9.20;81.80;;;;;;5025924;28;20584;-58
2022/01/06 08:25:28;;;;;;;12.35;9.10;;;9.30;82.30;;;;;;5030549;28;20037;-58
2022/01/06 08:27:53;;;;;;;12.13;9.43;;;9.30;81.80;;;;;;5029379;28;20079;-58
2022/01/06 08:30:19;;;;;;;14.23;9.43;;;9.30;81.80;;;;;;5027263;28;20076;-58
2022/01/06 08:32:44;;;;;;;12.68;9.75;;;9.40;81.60;;;;;;5027318;28;20040;-57
2022/01/06 08:35:10;;;;;;;13.02;10.30;;;9.30;81.40;;;;;;5033528;28;20036;-59
2022/01/06 08:37:36;;;;;;;16.70;11.07;;;9.30;81.40;;;;;;5023968;28;20783;-58
2022/01/06 08:40:02;;;;;;;14.63;10.98;;;9.30;81.70;;;;;;5031164;28;20025;-56
2022/01/06 08:42:28;;;;;;;12.82;9.10;;;9.30;81.40;;;;;;5028363;28;20079;-58
2022/01/06 08:44:54;;;;;;;13.32;8.55;;;9.30;81.60;;;;;;5026156;28;20041;-56
2022/01/06 08:47:19;;;;;;;12.52;9.45;;;9.20;81.60;;;;;;5023328;28;20075;-58
2022/01/06 08:49:45;;;;;;;13.50;9.45;;;9.20;82.50;;;;;;5029080;28;20049;-57
2022/01/06 08:52:11;;;;;;;12.52;8.68;;;9.10;82.00;;;;;;5026073;28;20354;-55
2022/01/06 08:54:36;;;;;;;11.60;8.45;;;9.20;82.20;;;;;;5019103;28;20036;-58
2022/01/06 08:57:02;;;;;;;11.77;8.50;;;9.10;82.30;;;;;;5017094;28;21076;-58
2022/01/06 08:59:28;;;;;;;12.80;8.93;;;9.20;82.30;;;;;;5031070;28;20033;-57
2022/01/06 09:01:54;;;;;;;11.60;9.20;;;9.20;82.30;;;;;;5023588;28;20044;-58
2022/01/06 09:04:20;;;;;;;10.68;8.60;;;9.20;82.10;;;;;;5019232;28;20033;-57
2022/01/06 09:06:50;;;;;;;10.98;9.00;;;9.20;82.10;;;;;;5020997;28;20440;-59
2022/01/06 09:09:17;;;;;;;11.40;8.02;;;9.20;82.10;;;;;;5022773;28;20036;-60
2022/01/06 09:11:43;;;;;;;9.57;7.78;;;9.20;82.30;;;;;;5020662;28;20029;-60
2022/01/06 09:14:09;;;;;;;14.52;9.63;;;9.10;82.40;;;;;;5021156;28;21484;-59
2022/01/06 09:16:36;;;;;;;13.07;9.32;;;9.10;82.50;;;;;;5026336;28;20032;-61
2022/01/06 09:19:01;;;;;;;12.43;9.75;;;9.00;82.60;;;;;;5027152;28;20090;-58
2022/01/06 09:21:27;;;;;;;13.98;10.88;;;9.00;82.90;;;;;;5020664;28;20166;-58
2022/01/06 09:23:53;;;;;;;13.63;10.63;;;9.10;83.10;;;;;;5028239;28;20157;-59
2022/01/06 09:26:19;;;;;;;12.63;10.52;;;9.10;83.30;;;;;;5029704;28;20799;-58
2022/01/06 09:28:45;;;;;;;15.48;11.68;;;9.10;83.10;;;;;;5034630;28;20025;-59
2022/01/06 09:31:11;;;;;;;15.18;11.02;;;9.20;83.20;;;;;;5022107;28;20116;-57
2022/01/06 09:33:36;;;;;;;12.38;10.60;;;9.20;83.30;;;;;;5024923;28;20026;-59
2022/01/06 09:36:02;;;;;;;12.02;9.23;;;9.20;83.20;;;;;;5025421;28;20072;-59
2022/01/06 09:38:28;;;;;;;13.13;9.70;;;9.20;82.60;;;;;;5030307;28;21108;-59
2022/01/06 09:40:54;;;;;;;13.52;9.70;;;9.20;82.40;;;;;;5023665;28;20124;-60
2022/01/06 09:43:27;;;;;;;11.52;9.82;;;9.30;82.30;;;;;;5028415;28;20110;-58
2022/01/06 09:45:53;;;;;;;13.25;9.50;;;9.30;82.40;;;;;;5024586;28;20028;-60
2022/01/06 09:48:23;;;;;;;11.25;8.52;;;9.20;82.40;;;;;;5024153;28;20033;-59
2022/01/06 09:50:49;;;;;;;11.15;9.07;;;9.30;82.60;;;;;;5022102;28;20038;-59
2022/01/06 09:53:17;;;;;;;12.30;9.20;;;9.30;82.60;;;;;;5020303;28;20025;-58
2022/01/06 09:55:42;;;;;;;12.13;9.57;;;9.30;82.50;;;;;;5027002;28;20099;-59
2022/01/06 09:58:08;;;;;;;13.07;9.70;;;9.30;82.40;;;;;;5025465;28;20559;-59
2022/01/06 10:00:36;;;;;;;14.00;10.48;;;9.40;82.20;;;;;;5013761;28;20556;-58
2022/01/06 10:03:05;;;;;;;15.73;11.13;;;9.40;82.10;;;;;;5023379;28;20032;-59
2022/01/06 10:05:43;;;;;;;14.60;11.30;;;9.40;82.00;;;;;;5022135;28;21134;-59
2022/01/06 10:08:10;;;;;;;12.65;10.05;;;9.40;82.00;;;;;;5031046;28;20037;-59
2022/01/06 10:10:36;;;;;;;16.40;12.07;;;9.30;82.00;;;;;;5025306;28;20032;-58
2022/01/06 10:13:07;;;;;;;15.23;10.85;;;9.20;82.00;;;;;;5022055;28;20040;-57
2022/01/06 10:15:35;;;;;;;15.32;11.70;;;9.20;82.20;;;;;;5019040;28;20037;-59
2022/01/06 10:18:14;;;;;;;17.05;12.68;;;9.10;82.30;;;;;;5030311;28;20115;-58
2022/01/06 10:20:41;;;;;;;16.15;12.50;;;9.20;82.40;;;;;;5028622;28;20046;-59
2022/01/06 10:23:15;;;;;;;16.35;11.57;;;9.20;82.60;;;;;;5030347;28;20470;-60
2022/01/06 10:25:49;;;;;;;22.75;13.60;;;9.20;82.50;;;;;;5030463;28;20056;-60
2022/01/06 10:28:20;;;;;;;15.25;11.63;;;9.10;82.50;;;;;;5023910;28;20057;-59
2022/01/06 10:30:48;;;;;;;17.60;12.55;;;9.10;82.70;;;;;;5029979;28;20484;-60
2022/01/06 10:33:23;;;;;;;18.52;12.50;;;9.10;83.00;;;;;;5029316;28;20527;-59
2022/01/06 10:35:49;;;;;;;16.40;12.55;;;9.10;83.10;;;;;;5029469;28;20457;-57
2022/01/06 10:38:27;;;;;;;16.63;12.20;;;9.20;83.10;;;;;;5028078;28;20127;-59
2022/01/06 10:40:53;;;;;;;14.88;11.75;;;9.20;83.00;;;;;;5027828;28;20504;-59
2022/01/06 10:43:32;;;;;;;17.50;12.32;;;9.20;82.70;;;;;;5026702;28;20120;-60
2022/01/06 10:46:02;;;;;;;15.55;11.82;;;9.30;82.70;;;;;;5021778;28;20047;-61
2022/01/06 10:48:28;;;;;;;16.20;12.27;;;9.30;82.90;;;;;;5025504;28;20101;-58
2022/01/06 10:50:58;;;;;;;13.75;10.60;;;9.30;82.80;;;;;;5025380;28;20423;-59
2022/01/06 10:53:25;;;;;;;12.13;10.52;;;9.40;82.80;;;;;;5022149;28;20560;-58
2022/01/06 10:55:50;;;;;;;14.30;11.30;;;9.40;82.60;;;;;;5024349;28;20089;-58
2022/01/06 10:58:25;;;;;;;16.10;12.13;;;9.40;82.50;;;;;;5022707;28;20139;-57
2022/01/06 11:01:00;;;;;;;17.05;12.82;;;9.50;82.40;;;;;;5030972;28;20044;-56
2022/01/06 11:03:33;;;;;;;18.25;13.73;;;9.50;82.30;;;;;;5022311;28;20031;-58
2022/01/06 11:06:01;;;;;;;16.85;13.75;;;9.50;81.90;;;;;;5030799;28;20028;-58
2022/01/06 11:08:36;;;;;;;18.67;13.43;;;9.50;81.80;;;;;;5019661;28;20034;-57
2022/01/06 11:13:41;;;;;;;20.65;14.68;;;9.60;81.70;;;;;;5030429;28;20666;-57
2022/01/06 11:16:08;;;;;;;18.83;13.35;;;9.60;82.00;;;;;;5030598;28;20140;-57
2022/01/06 11:18:40;;;;;;;19.50;14.18;;;9.60;82.00;;;;;;5031284;28;20042;-58
2022/01/06 11:21:17;;;;;;;;;;;9.60;81.90;;;;;;5035615;28;20052;-56
2022/01/06 11:23:42;;;;;;;17.13;13.05;;;9.60;81.90;;;;;;5031953;28;20015;-57
2022/01/06 11:26:11;;;;;;;17.08;12.13;;;9.70;81.90;;;;;;5023239;28;20094;-58
2022/01/06 11:28:37;;;;;;;12.50;10.57;;;9.70;81.60;;;;;;5028754;28;20036;-57
2022/01/06 11:31:21;;;;;;;14.80;11.52;;;9.70;81.40;;;;;;5032062;28;20037;-58
2022/01/06 11:33:48;;;;;;;15.52;11.65;;;9.70;81.30;;;;;;5027148;28;20025;-57
2022/01/06 11:36:32;;;;;;;16.13;11.65;;;9.70;81.50;;;;;;5030360;28;20025;-58
2022/01/06 11:38:59;;;;;;;14.10;11.20;;;9.70;81.40;;;;;;5026713;28;20029;-58
2022/01/06 11:41:40;;;;;;;14.45;11.18;;;9.70;81.70;;;;;;5031175;28;20033;-59
2022/01/06 11:44:46;;;;;;;14.53;11.53;;;9.70;81.60;;;;;;5031601;28;20029;-57
2022/01/06 11:47:12;;;;;;;13.60;10.80;;;9.70;81.60;;;;;;5023630;28;20113;-58
2022/01/06 11:49:43;;;;;;;12.57;10.55;;;9.80;81.50;;;;;;5031748;28;20036;-58
2022/01/06 11:52:14;;;;;;;13.48;10.75;;;9.90;81.30;;;;;;5036380;28;20330;-59
2022/01/06 11:54:50;;;;;;;12.50;9.82;;;9.90;81.30;;;;;;5035280;28;20064;-58
2022/01/06 11:57:38;;;;;;;14.35;10.85;;;9.90;81.50;;;;;;5028005;28;20083;-57
2022/01/06 12:00:22;;;;;;;12.05;9.45;;;10.00;80.70;;;;;;5033972;28;20029;-57
2022/01/06 12:03:02;;;;;;;12.50;9.85;;;10.00;80.50;;;;;;5033854;28;20039;-58
2022/01/06 12:05:52;;;;;;;14.63;10.23;;;10.00;80.70;;;;;;5027159;28;20661;-57
2022/01/06 12:08:19;;;;;;;13.45;9.73;;;9.90;80.10;;;;;;5023781;28;20032;-59
2022/01/06 12:10:54;;;;;;;11.35;8.55;;;9.90;80.00;;;;;;5025640;28;20068;-58
2022/01/06 12:13:19;;;;;;;13.95;10.82;;;9.80;80.10;;;;;;5030618;28;20828;-59
2022/01/06 12:15:57;;;;;;;14.63;10.85;;;9.70;80.10;;;;;;5025759;28;20033;-59
2022/01/06 12:18:25;;;;;;;13.43;10.32;;;9.70;80.40;;;;;;5023671;28;20041;-57
2022/01/06 12:20:52;;;;;;;13.93;10.80;;;9.70;80.60;;;;;;5030458;28;20519;-59
2022/01/06 12:23:19;;;;;;;14.63;11.43;;;9.60;80.70;;;;;;5038141;28;20564;-57
2022/01/06 12:26:03;;;;;;;14.82;11.85;;;9.60;80.80;;;;;;5030446;28;20436;-58
2022/01/06 12:28:32;;;;;;;15.95;12.18;;;9.60;80.60;;;;;;5041921;28;20028;-59
2022/01/06 12:31:04;;;;;;;16.90;12.15;;;9.60;80.80;;;;;;5025232;28;20025;-58
2022/01/06 12:33:31;;;;;;;;;;;9.60;80.90;;;;;;5025979;28;20100;-59
2022/01/06 12:35:57;;;;;;;16.23;11.88;;;9.50;81.10;;;;;;5028173;28;19971;-59
2022/01/06 12:38:34;;;;;;;14.98;11.27;;;9.60;81.00;;;;;;5037173;28;20033;-59
2022/01/06 12:41:00;;;;;;;15.38;12.75;;;9.60;80.70;;;;;;5027555;28;20034;-60
2022/01/06 12:43:31;;;;;;;18.92;13.55;;;9.60;80.70;;;;;;5032983;28;20470;-60
2022/01/06 12:46:13;;;;;;;18.75;14.38;;;9.60;80.90;;;;;;5029650;28;20412;-59
2022/01/06 12:48:42;;;;;;;16.42;12.27;;;9.60;80.90;;;;;;5041074;28;20752;-58